Terminal Aerodrome Forecast
Issued by NWS

Home | Current Version | Previous Version | Text Only | Print | Product List | Glossary On
Versions: 1 2 3 4 5 6 7 8 9 10 11 12 13 14 15 16 17 18 19 20 21 22
463
FTUS44 KTSA 270336 AAB
TAFMLC
TAF AMD
KMLC 270336Z 2704/2724 16011G20KT P6SM BKN025
     FM270900 17009KT P6SM OVC015
     FM271800 17011G18KT P6SM VCTS BKN020CB
      TEMPO 2720/2724 2SM +TSRA OVC015CB=

USA.gov is the U.S. government's official web portal to all federal, state and local government web resources and services.